createdAt,value
2018-12-12T00:01:40.422Z,5.63
2018-12-12T00:04:08.819Z,6.90
2018-12-12T00:06:37.113Z,4.80
2018-12-12T00:09:07.400Z,6.10
2018-12-12T00:11:35.841Z,4.93
2018-12-12T00:14:04.236Z,3.30
2018-12-12T00:16:32.515Z,4.03
2018-12-12T00:19:00.773Z,4.93
2018-12-12T00:21:29.061Z,4.40
2018-12-12T00:23:57.313Z,6.00
2018-12-12T00:26:25.801Z,6.20
2018-12-12T00:28:54.123Z,5.30
2018-12-12T00:31:22.410Z,5.87
2018-12-12T00:33:50.673Z,4.03
2018-12-12T00:36:18.938Z,6.23
2018-12-12T00:38:47.207Z,4.43
2018-12-12T00:41:15.486Z,4.63
2018-12-12T00:43:43.854Z,6.03
2018-12-12T00:46:12.128Z,4.60
2018-12-12T00:48:41.201Z,5.20
2018-12-12T00:51:09.493Z,4.83
2018-12-12T00:53:37.832Z,4.90
2018-12-12T00:56:06.137Z,5.93
2018-12-12T00:58:34.426Z,2.60
2018-12-12T01:01:02.712Z,6.67
2018-12-12T01:03:31.033Z,5.13
2018-12-12T01:05:59.297Z,4.20
2018-12-12T01:08:27.557Z,4.93
2018-12-12T01:11:01.254Z,3.47
2018-12-12T01:13:29.530Z,4.63
2018-12-12T01:15:57.811Z,4.20
2018-12-12T01:18:26.093Z,3.90
2018-12-12T01:20:54.462Z,4.87
2018-12-12T01:23:22.754Z,3.17
2018-12-12T01:25:51.030Z,5.80
2018-12-12T01:28:19.299Z,7.00
2018-12-12T01:30:47.596Z,5.00
2018-12-12T01:33:15.844Z,6.00
2018-12-12T01:35:44.131Z,3.77
2018-12-12T01:38:12.412Z,4.03
2018-12-12T01:40:40.677Z,4.13
2018-12-12T01:43:08.949Z,3.37
2018-12-12T01:45:37.271Z,6.77
2018-12-12T01:48:05.541Z,4.10
2018-12-12T01:50:33.799Z,6.83
2018-12-12T01:53:02.053Z,4.30
2018-12-12T01:55:30.337Z,4.73
2018-12-12T01:57:58.725Z,4.70
2018-12-12T02:00:27.914Z,3.97
2018-12-12T02:02:56.173Z,6.37
2018-12-12T02:05:24.547Z,4.27
2018-12-12T02:07:53.128Z,4.97
2018-12-12T02:10:21.398Z,5.83
2018-12-12T02:13:02.281Z,5.20
2018-12-12T02:15:30.542Z,5.17
2018-12-12T02:17:59.137Z,3.60
2018-12-12T02:20:27.415Z,5.53
2018-12-12T02:22:55.722Z,6.00
2018-12-12T02:25:25.100Z,4.30
2018-12-12T02:27:53.367Z,5.57
2018-12-12T02:30:21.655Z,5.70
2018-12-12T02:32:49.933Z,4.37
2018-12-12T02:35:18.334Z,4.67
2018-12-12T02:37:46.600Z,4.27
2018-12-12T02:40:15.474Z,4.97
2018-12-12T02:42:43.744Z,4.20
2018-12-12T02:45:12.020Z,4.07
2018-12-12T02:47:40.629Z,4.73
2018-12-12T02:50:08.942Z,4.83
2018-12-12T02:52:37.218Z,3.83
2018-12-12T02:55:05.596Z,5.97
2018-12-12T02:57:33.856Z,5.67
2018-12-12T03:00:02.159Z,4.40
2018-12-12T03:02:30.420Z,3.57
2018-12-12T03:04:58.719Z,4.63
2018-12-12T03:07:26.980Z,5.00
2018-12-12T03:09:55.242Z,6.47
2018-12-12T03:12:23.536Z,5.07
2018-12-12T03:14:51.940Z,3.20
2018-12-12T03:17:20.248Z,4.73
2018-12-12T03:19:48.592Z,3.03
2018-12-12T03:22:16.864Z,3.30
2018-12-12T03:24:45.180Z,3.97
2018-12-12T03:27:13.467Z,4.40
2018-12-12T03:29:41.738Z,6.40
2018-12-12T03:32:10.016Z,4.57
2018-12-12T03:34:38.297Z,3.53
2018-12-12T03:37:07.489Z,3.40
2018-12-12T03:39:35.751Z,3.77
2018-12-12T03:42:04.112Z,4.77
2018-12-12T03:44:32.397Z,4.77
2018-12-12T03:47:00.661Z,2.83
2018-12-12T03:49:29.321Z,4.13
2018-12-12T03:51:57.593Z,3.27
2018-12-12T03:54:25.919Z,4.13
2018-12-12T03:56:54.281Z,4.80
2018-12-12T03:59:22.558Z,5.53
2018-12-12T04:01:50.838Z,3.60
2018-12-12T04:04:19.122Z,5.23
2018-12-12T04:06:47.381Z,5.10
2018-12-12T04:09:15.678Z,3.70
2018-12-12T04:11:43.961Z,4.50
2018-12-12T04:14:12.273Z,4.30
2018-12-12T04:16:40.593Z,4.17
2018-12-12T04:19:09.172Z,3.73
2018-12-12T04:21:37.464Z,3.50
2018-12-12T04:24:05.758Z,6.03
2018-12-12T04:26:34.067Z,6.77
2018-12-12T04:29:02.630Z,3.73
2018-12-12T04:31:30.924Z,5.20
2018-12-12T04:33:59.274Z,5.60
2018-12-12T04:36:27.533Z,4.83
2018-12-12T04:38:55.809Z,3.90
2018-12-12T04:41:24.073Z,3.17
2018-12-12T04:43:52.367Z,4.50
2018-12-12T04:46:20.645Z,5.57
2018-12-12T04:48:48.921Z,5.90
2018-12-12T04:51:17.657Z,5.90
2018-12-12T04:53:46.135Z,2.20
2018-12-12T04:56:14.430Z,5.30
2018-12-12T04:58:42.717Z,3.97
2018-12-12T05:01:11.014Z,2.97
2018-12-12T05:03:39.277Z,5.57
2018-12-12T05:06:07.555Z,4.20
2018-12-12T05:08:35.846Z,4.27
2018-12-12T05:11:04.314Z,3.87
2018-12-12T05:13:32.603Z,5.90
2018-12-12T05:16:00.885Z,3.73
2018-12-12T05:18:29.152Z,6.63
2018-12-12T05:20:57.402Z,4.33
2018-12-12T05:23:25.689Z,5.00
2018-12-12T05:25:53.994Z,4.37
2018-12-12T05:28:22.276Z,4.67
2018-12-12T05:30:50.580Z,5.13
2018-12-12T05:33:18.864Z,3.53
2018-12-12T05:35:47.176Z,4.80
2018-12-12T05:38:15.466Z,3.67
2018-12-12T05:40:43.824Z,3.00
2018-12-12T05:43:12.239Z,4.17
2018-12-12T05:45:40.908Z,3.53
2018-12-12T05:48:09.184Z,4.00
2018-12-12T05:50:37.456Z,2.90
2018-12-12T05:53:05.977Z,3.97
2018-12-12T05:55:34.261Z,5.90
2018-12-12T05:58:02.558Z,5.50
2018-12-12T06:00:30.848Z,3.63
2018-12-12T06:02:59.142Z,3.47
2018-12-12T06:05:27.449Z,3.23
2018-12-12T06:07:55.740Z,4.03
2018-12-12T06:10:24.055Z,2.83
2018-12-12T06:12:52.334Z,3.90
2018-12-12T06:15:20.701Z,3.33
2018-12-12T06:17:48.999Z,4.73
2018-12-12T06:20:17.413Z,3.57
2018-12-12T06:22:45.806Z,4.63
2018-12-12T06:25:14.112Z,4.23
2018-12-12T06:27:42.403Z,7.27
2018-12-12T06:30:11.035Z,3.80
2018-12-12T06:32:39.332Z,4.37
2018-12-12T06:35:07.762Z,5.67
2018-12-12T06:37:36.082Z,3.10
2018-12-12T06:40:05.106Z,3.87
2018-12-12T06:42:33.390Z,4.90
2018-12-12T06:45:01.924Z,4.87
2018-12-12T06:47:30.309Z,3.03
2018-12-12T06:49:58.574Z,3.77
2018-12-12T06:52:28.289Z,3.27
2018-12-12T06:54:59.030Z,3.67
2018-12-12T06:57:27.325Z,5.83
2018-12-12T06:59:55.593Z,6.47
2018-12-12T07:02:23.900Z,6.83
2018-12-12T07:04:52.180Z,5.20
2018-12-12T07:07:20.970Z,4.50
2018-12-12T07:09:49.230Z,6.53
2018-12-12T07:12:17.514Z,6.37
2018-12-12T07:14:45.845Z,5.47
2018-12-12T07:17:14.116Z,6.17
2018-12-12T07:19:42.402Z,5.27
2018-12-12T07:22:10.670Z,8.40
2018-12-12T07:24:38.950Z,6.47
2018-12-12T07:27:07.254Z,8.13
2018-12-12T07:29:35.544Z,5.43
2018-12-12T07:32:03.988Z,9.00
2018-12-12T07:34:32.280Z,6.70
2018-12-12T07:37:00.617Z,6.47
2018-12-12T07:39:28.914Z,8.57
2018-12-12T07:41:57.241Z,8.93
2018-12-12T07:44:25.542Z,7.63
2018-12-12T07:46:54.227Z,9.90
2018-12-12T07:49:22.725Z,6.43
2018-12-12T07:51:51.008Z,7.10
2018-12-12T07:54:19.315Z,7.80
2018-12-12T07:56:47.846Z,7.13
2018-12-12T07:59:16.147Z,9.07
2018-12-12T08:01:45.043Z,7.00
2018-12-12T08:04:13.365Z,9.70
2018-12-12T08:06:41.659Z,12.70
2018-12-12T08:09:10.069Z,16.67
2018-12-12T08:11:38.340Z,22.70
2018-12-12T08:14:06.631Z,13.87
2018-12-12T08:16:34.957Z,15.70
2018-12-12T08:19:03.254Z,15.27
2018-12-12T08:21:31.543Z,8.00
2018-12-12T08:23:59.854Z,15.47
2018-12-12T08:26:28.133Z,13.30
2018-12-12T08:28:56.449Z,9.93
2018-12-12T08:31:24.705Z,16.43
2018-12-12T08:33:52.998Z,13.07
2018-12-12T08:36:21.293Z,12.43
2018-12-12T08:38:49.592Z,11.40
2018-12-12T08:41:17.886Z,10.93
2018-12-12T08:43:46.182Z,7.90
2018-12-12T08:46:14.525Z,11.63
2018-12-12T08:48:42.892Z,9.37
2018-12-12T08:51:11.167Z,12.57
2018-12-12T08:53:39.487Z,12.13
2018-12-12T08:56:07.750Z,12.23
2018-12-12T08:58:36.336Z,16.80
2018-12-12T09:01:04.836Z,14.57
2018-12-12T09:03:33.133Z,13.97
2018-12-12T09:06:01.415Z,14.87
2018-12-12T09:08:29.718Z,14.30
2018-12-12T09:10:58.559Z,14.97
2018-12-12T09:13:26.826Z,13.37
2018-12-12T09:15:56.357Z,14.50
2018-12-12T09:18:24.645Z,15.07
2018-12-12T09:20:52.990Z,14.67
2018-12-12T09:23:21.289Z,14.23
2018-12-12T09:25:49.731Z,16.27
2018-12-12T09:28:18.017Z,13.10
2018-12-12T09:30:46.331Z,12.70
2018-12-12T09:33:14.627Z,19.87
2018-12-12T09:35:43.035Z,14.03
2018-12-12T09:38:11.313Z,12.70
2018-12-12T09:40:39.992Z,13.97
2018-12-12T09:43:08.278Z,15.53
2018-12-12T09:45:36.534Z,12.73
2018-12-12T09:48:04.817Z,15.53
2018-12-12T09:50:33.240Z,15.50
2018-12-12T09:53:01.587Z,16.03
2018-12-12T09:55:29.883Z,15.27
2018-12-12T09:57:58.171Z,12.10
2018-12-12T10:00:27.956Z,15.83
2018-12-12T10:02:56.230Z,11.63
2018-12-12T10:05:24.509Z,15.03
2018-12-12T10:07:52.770Z,13.70
2018-12-12T10:10:21.071Z,15.13
2018-12-12T10:12:49.327Z,13.87
2018-12-12T10:15:17.627Z,14.80
2018-12-12T10:17:45.915Z,17.30
2018-12-12T10:20:14.379Z,12.90
2018-12-12T10:22:42.662Z,16.27
2018-12-12T10:25:11.125Z,12.53
2018-12-12T10:27:39.413Z,16.90
2018-12-12T10:30:07.888Z,11.67
2018-12-12T10:32:36.172Z,16.03
2018-12-12T10:35:05.105Z,14.93
2018-12-12T10:37:33.401Z,18.13
2018-12-12T10:40:01.713Z,12.03
2018-12-12T10:42:29.995Z,19.60
2018-12-12T10:44:58.318Z,15.93
2018-12-12T10:47:26.583Z,15.87
2018-12-12T10:49:54.878Z,17.30
2018-12-12T10:52:23.174Z,18.30
2018-12-12T10:54:51.456Z,19.20
2018-12-12T10:57:19.744Z,17.53
2018-12-12T10:59:48.024Z,17.07
2018-12-12T11:02:22.422Z,15.57
2018-12-12T11:04:50.683Z,16.50
2018-12-12T11:07:19.002Z,18.97
2018-12-12T11:09:47.314Z,15.13
2018-12-12T11:12:15.609Z,20.10
2018-12-12T11:14:43.890Z,18.30
2018-12-12T11:17:12.170Z,16.37
2018-12-12T11:19:40.450Z,14.77
2018-12-12T11:22:08.755Z,16.17
2018-12-12T11:25:07.376Z,18.37
2018-12-12T11:27:35.766Z,15.00
2018-12-12T11:30:05.685Z,15.90
2018-12-12T11:32:33.996Z,19.63
2018-12-12T11:35:02.274Z,18.03
2018-12-12T11:37:30.545Z,18.60
2018-12-12T11:39:58.807Z,15.03
2018-12-12T11:42:27.091Z,14.80
2018-12-12T11:44:55.381Z,14.30
2018-12-12T11:47:23.645Z,12.57
2018-12-12T11:49:51.973Z,17.90
2018-12-12T11:52:20.256Z,15.10
2018-12-12T11:54:48.607Z,18.17
2018-12-12T11:57:16.967Z,14.97
2018-12-12T11:59:45.308Z,14.33
2018-12-12T12:02:13.707Z,13.33
2018-12-12T12:04:41.977Z,11.37
2018-12-12T12:07:10.269Z,12.80
2018-12-12T12:09:38.567Z,13.70
2018-12-12T12:12:06.859Z,14.17
2018-12-12T12:14:35.170Z,13.83
2018-12-12T12:17:03.452Z,13.73
2018-12-12T12:19:31.746Z,16.47
2018-12-12T12:22:00.041Z,17.73
2018-12-12T12:24:28.363Z,14.67
2018-12-12T12:26:56.693Z,12.53
2018-12-12T12:29:25.086Z,16.70
2018-12-12T12:31:53.491Z,14.30
2018-12-12T12:34:21.770Z,13.07
2018-12-12T12:36:50.244Z,13.23
2018-12-12T12:39:18.521Z,14.23
2018-12-12T12:41:46.898Z,12.90
2018-12-12T12:44:15.185Z,12.43
2018-12-12T12:46:43.465Z,12.77
2018-12-12T12:49:11.781Z,12.80
2018-12-12T12:51:40.073Z,12.47
2018-12-12T12:54:08.353Z,13.50
2018-12-12T12:56:36.637Z,14.70
2018-12-12T12:59:04.914Z,12.37
2018-12-12T13:01:33.246Z,9.90
2018-12-12T13:04:01.534Z,13.63
2018-12-12T13:06:30.036Z,11.30
2018-12-12T13:08:59.266Z,12.63
2018-12-12T13:11:27.544Z,11.87
2018-12-12T13:13:55.820Z,12.37
2018-12-12T13:16:24.114Z,11.27
2018-12-12T13:18:53.199Z,12.70
2018-12-12T13:21:21.490Z,10.83
2018-12-12T13:23:49.753Z,12.53
2018-12-12T13:26:18.041Z,14.40
2018-12-12T13:28:46.346Z,13.73
2018-12-12T13:31:14.627Z,15.70
2018-12-12T13:33:42.917Z,10.97
2018-12-12T13:36:11.292Z,11.00
2018-12-12T13:38:39.578Z,14.37
2018-12-12T13:41:07.941Z,12.10
2018-12-12T13:43:36.266Z,10.00
2018-12-12T13:46:05.885Z,12.20
2018-12-12T13:48:34.191Z,17.93
2018-12-12T13:51:03.026Z,15.47
2018-12-12T13:53:31.305Z,13.00
2018-12-12T13:55:59.670Z,12.70
2018-12-12T13:58:28.032Z,17.20
2018-12-12T14:00:56.324Z,15.87
2018-12-12T14:03:24.611Z,11.90
2018-12-12T14:05:52.966Z,13.70
2018-12-12T14:08:21.612Z,12.43
2018-12-12T14:10:49.892Z,13.23
2018-12-12T14:13:18.259Z,10.20
2018-12-12T14:15:46.586Z,12.73
2018-12-12T14:18:14.878Z,14.77
2018-12-12T14:20:43.259Z,11.67
2018-12-12T14:23:11.536Z,10.50
2018-12-12T14:25:39.814Z,13.23
2018-12-12T14:28:08.391Z,11.80
2018-12-12T14:30:36.659Z,11.20
2018-12-12T14:33:05.113Z,10.80
2018-12-12T14:35:33.417Z,11.20
2018-12-12T14:38:01.762Z,12.10
2018-12-12T14:40:30.028Z,13.93
2018-12-12T14:42:58.409Z,13.43
2018-12-12T14:45:26.709Z,11.77
2018-12-12T14:47:54.983Z,12.93
2018-12-12T14:50:23.245Z,10.57
2018-12-12T14:52:51.529Z,13.47
2018-12-12T14:55:19.815Z,12.20
2018-12-12T14:57:48.103Z,15.00
2018-12-12T15:00:16.469Z,16.03
2018-12-12T15:02:44.946Z,13.83
2018-12-12T15:05:14.081Z,14.47
2018-12-12T15:07:42.463Z,16.50
2018-12-12T15:10:11.178Z,16.07
2018-12-12T15:12:39.498Z,13.10
2018-12-12T15:15:07.893Z,15.10
2018-12-12T15:17:36.195Z,13.70
2018-12-12T15:20:05.096Z,15.20
2018-12-12T15:22:33.386Z,14.43
2018-12-12T15:25:01.696Z,12.57
2018-12-12T15:27:29.990Z,12.57
2018-12-12T15:29:58.316Z,11.63
2018-12-12T15:32:26.624Z,13.03
2018-12-12T15:34:54.903Z,13.13
2018-12-12T15:37:23.226Z,10.70
2018-12-12T15:39:51.509Z,12.17
2018-12-12T15:42:19.824Z,12.57
2018-12-12T15:44:48.188Z,10.07
2018-12-12T15:47:16.465Z,11.07
2018-12-12T15:49:44.796Z,11.07
2018-12-12T15:52:13.066Z,11.90
2018-12-12T15:54:41.439Z,11.70
2018-12-12T15:57:09.790Z,12.30
2018-12-12T15:59:38.086Z,13.43
2018-12-12T16:02:06.379Z,9.37
2018-12-12T16:04:34.644Z,10.13
2018-12-12T16:07:03.020Z,11.10
2018-12-12T16:09:31.289Z,9.27
2018-12-12T16:11:59.701Z,8.50
2018-12-12T16:14:28.021Z,9.40
2018-12-12T16:16:56.327Z,8.00
2018-12-12T16:19:24.671Z,7.77
2018-12-12T16:21:52.957Z,9.20
2018-12-12T16:24:21.231Z,9.30
2018-12-12T16:26:49.521Z,8.27
2018-12-12T16:29:17.792Z,8.60
2018-12-12T16:31:46.087Z,8.57
2018-12-12T16:34:14.367Z,8.23
2018-12-12T16:36:42.639Z,6.77
2018-12-12T16:39:11.056Z,8.27
2018-12-12T16:41:39.335Z,6.00
2018-12-12T16:44:07.643Z,7.17
2018-12-12T16:46:35.920Z,6.13
2018-12-12T16:49:08.016Z,5.93
2018-12-12T16:51:36.290Z,6.23
2018-12-12T16:54:04.570Z,13.30
2018-12-12T16:56:32.889Z,6.60
2018-12-12T16:59:01.393Z,6.83
2018-12-12T17:01:29.709Z,8.90
2018-12-12T17:03:57.998Z,8.93
2018-12-12T17:06:26.367Z,6.73
2018-12-12T17:08:54.314Z,7.37
2018-12-12T17:11:22.594Z,6.83
2018-12-12T17:13:51.125Z,6.73
2018-12-12T17:16:19.401Z,8.60
2018-12-12T17:18:47.712Z,7.57
2018-12-12T17:21:16.126Z,6.17
2018-12-12T17:23:44.458Z,10.63
2018-12-12T17:26:12.758Z,7.03
2018-12-12T17:28:41.041Z,8.17
2018-12-12T17:31:09.336Z,7.93
2018-12-12T17:33:37.614Z,7.50
2018-12-12T17:36:05.906Z,8.10
2018-12-12T17:38:34.197Z,7.43
2018-12-12T17:41:02.529Z,9.07
2018-12-12T17:43:30.867Z,8.53
2018-12-12T17:45:59.149Z,8.83
2018-12-12T17:48:27.444Z,8.17
2018-12-12T17:50:55.811Z,9.53
2018-12-12T17:53:24.097Z,10.17
2018-12-12T17:55:52.493Z,10.57
2018-12-12T17:58:20.803Z,10.60
2018-12-12T18:00:49.207Z,11.57
2018-12-12T18:03:17.501Z,12.63
2018-12-12T18:05:45.811Z,11.27
2018-12-12T18:08:14.100Z,13.57
2018-12-12T18:10:42.395Z,10.87
2018-12-12T18:13:10.697Z,12.87
2018-12-12T18:15:39.085Z,11.10
2018-12-12T18:18:07.676Z,10.77
2018-12-12T18:20:35.967Z,9.57
2018-12-12T18:23:04.243Z,14.60
2018-12-12T18:25:32.527Z,14.73
2018-12-12T18:28:00.807Z,13.60
2018-12-12T18:30:29.120Z,13.27
2018-12-12T18:32:57.391Z,11.40
2018-12-12T18:35:25.668Z,15.37
2018-12-12T18:37:53.957Z,10.60
2018-12-12T18:40:24.350Z,13.87
2018-12-12T18:42:52.665Z,15.40
2018-12-12T18:45:20.963Z,22.63
2018-12-12T18:47:49.832Z,16.80
2018-12-12T18:50:18.225Z,14.77
2018-12-12T18:55:23.681Z,18.17
2018-12-12T18:57:51.988Z,12.17
2018-12-12T19:00:22.047Z,15.30
2018-12-12T19:02:50.312Z,12.13
2018-12-12T19:05:18.592Z,11.60
2018-12-12T19:07:47.028Z,12.77
2018-12-12T19:10:15.334Z,14.83
2018-12-12T19:12:44.784Z,11.07
2018-12-12T19:15:13.538Z,11.97
2018-12-12T19:17:41.940Z,12.87
2018-12-12T19:20:10.223Z,11.93
2018-12-12T19:22:38.506Z,12.10
2018-12-12T19:25:06.978Z,12.40
2018-12-12T19:27:35.263Z,11.43
2018-12-12T19:30:04.071Z,11.30
2018-12-12T19:32:32.361Z,11.23
2018-12-12T19:35:00.669Z,11.20
2018-12-12T19:37:29.000Z,10.20
2018-12-12T19:39:57.276Z,10.00
2018-12-12T19:42:25.595Z,10.30
2018-12-12T19:44:53.884Z,13.40
2018-12-12T19:47:23.170Z,11.57
2018-12-12T19:49:51.738Z,10.17
2018-12-12T19:52:20.015Z,9.93
2018-12-12T19:54:48.329Z,11.90
2018-12-12T19:57:16.628Z,11.00
2018-12-12T19:59:44.897Z,12.20
2018-12-12T20:02:13.385Z,11.70
2018-12-12T20:04:41.793Z,11.47
2018-12-12T20:07:10.149Z,10.60
2018-12-12T20:09:38.537Z,10.40
2018-12-12T20:12:06.895Z,10.57
2018-12-12T20:14:35.260Z,11.90
2018-12-12T20:17:03.607Z,10.33
2018-12-12T20:19:32.526Z,12.87
2018-12-12T20:22:01.347Z,10.70
2018-12-12T20:24:29.643Z,10.23
2018-12-12T20:26:58.043Z,8.90
2018-12-12T20:29:26.376Z,12.73
2018-12-12T20:31:54.651Z,12.33
2018-12-12T20:34:22.953Z,10.60
2018-12-12T20:36:51.234Z,9.53
2018-12-12T20:39:19.506Z,11.07
2018-12-12T20:41:47.879Z,8.97
2018-12-12T20:44:16.170Z,10.60
2018-12-12T20:46:44.470Z,11.70
2018-12-12T20:49:12.896Z,9.90
2018-12-12T20:51:41.190Z,10.87
2018-12-12T20:54:09.448Z,9.97
2018-12-12T20:56:37.736Z,12.57
2018-12-12T20:59:06.090Z,10.07
2018-12-12T21:01:34.384Z,11.70
2018-12-12T21:04:02.656Z,12.50
2018-12-12T21:06:30.912Z,10.63
2018-12-12T21:08:59.204Z,12.43
2018-12-12T21:11:27.487Z,11.67
2018-12-12T21:13:55.932Z,11.60
2018-12-12T21:16:24.248Z,10.63
2018-12-12T21:18:52.514Z,11.03
2018-12-12T21:21:21.058Z,11.37
2018-12-12T21:23:49.354Z,11.47
2018-12-12T21:26:18.074Z,12.27
2018-12-12T21:28:46.370Z,13.17
2018-12-12T21:31:14.655Z,9.87
2018-12-12T21:33:42.979Z,11.53
2018-12-12T21:36:11.269Z,11.80
2018-12-12T21:38:39.581Z,10.37
2018-12-12T21:41:07.859Z,12.07
2018-12-12T21:43:36.161Z,12.47
2018-12-12T21:46:05.028Z,11.27
2018-12-12T21:48:33.311Z,13.73
2018-12-12T21:51:01.799Z,11.50
2018-12-12T21:53:30.073Z,11.90
2018-12-12T21:55:58.390Z,10.70
2018-12-12T21:58:26.675Z,13.37
2018-12-12T22:00:55.156Z,11.10
2018-12-12T22:03:23.443Z,13.83
2018-12-12T22:05:51.804Z,11.77
2018-12-12T22:08:20.094Z,10.87
2018-12-12T22:10:48.369Z,13.10
2018-12-12T22:13:16.639Z,11.67
2018-12-12T22:15:44.977Z,14.97
2018-12-12T22:18:13.351Z,11.93
2018-12-12T22:20:41.625Z,11.13
2018-12-12T22:23:10.315Z,12.20
2018-12-12T22:25:38.645Z,13.90
2018-12-12T22:28:06.925Z,12.40
2018-12-12T22:30:35.197Z,13.03
2018-12-12T22:33:04.417Z,13.97
2018-12-12T22:35:32.678Z,13.43
2018-12-12T22:38:00.995Z,15.77
2018-12-12T22:40:29.517Z,12.37
2018-12-12T22:42:57.832Z,11.90
2018-12-12T22:45:26.108Z,13.40
2018-12-12T22:47:54.783Z,13.70
2018-12-12T22:50:23.053Z,12.10
2018-12-12T22:52:51.318Z,11.93
2018-12-12T22:55:19.601Z,11.43
2018-12-12T22:57:48.522Z,11.23
2018-12-12T23:00:22.539Z,13.20
2018-12-12T23:02:50.822Z,12.53
2018-12-12T23:05:19.106Z,11.67
2018-12-12T23:07:47.411Z,13.57
2018-12-12T23:10:15.687Z,12.30
2018-12-12T23:12:43.987Z,12.43
2018-12-12T23:15:13.261Z,11.97
2018-12-12T23:17:41.613Z,10.97
2018-12-12T23:20:09.903Z,12.90
2018-12-12T23:22:38.176Z,14.57
2018-12-12T23:25:06.843Z,11.97
2018-12-12T23:27:35.108Z,11.80
2018-12-12T23:30:04.629Z,13.17
2018-12-12T23:32:32.921Z,12.77
2018-12-12T23:35:01.204Z,12.57
2018-12-12T23:37:29.588Z,12.00
2018-12-12T23:39:57.873Z,12.07
2018-12-12T23:42:26.195Z,13.57
2018-12-12T23:44:54.461Z,12.63
2018-12-12T23:47:23.147Z,11.43
2018-12-12T23:49:51.423Z,12.87
2018-12-12T23:52:19.701Z,12.00
2018-12-12T23:54:47.993Z,13.00
2018-12-12T23:57:16.298Z,14.90
2018-12-12T23:59:44.699Z,14.87
